sensor_id;sensor_type;location;lat;lon;timestamp;P1;durP1;ratioP1;P2;durP2;ratioP2
12145;SDS011;6136;47.032;15.398;2022-12-07T00:01:26;11.67;;;7.50;;
12145;SDS011;6136;47.032;15.398;2022-12-07T00:03:57;11.57;;;7.53;;
12145;SDS011;6136;47.032;15.398;2022-12-07T00:06:33;12.07;;;7.37;;
12145;SDS011;6136;47.032;15.398;2022-12-07T00:09:02;12.93;;;7.97;;
12145;SDS011;6136;47.032;15.398;2022-12-07T00:11:31;12.57;;;7.43;;
12145;SDS011;6136;47.032;15.398;2022-12-07T00:14:01;11.60;;;7.57;;
12145;SDS011;6136;47.032;15.398;2022-12-07T00:16:33;11.17;;;7.80;;
12145;SDS011;6136;47.032;15.398;2022-12-07T00:19:03;14.33;;;8.30;;
12145;SDS011;6136;47.032;15.398;2022-12-07T00:21:33;14.17;;;7.93;;
12145;SDS011;6136;47.032;15.398;2022-12-07T00:24:03;16.37;;;7.13;;
12145;SDS011;6136;47.032;15.398;2022-12-07T00:26:33;12.60;;;8.30;;
12145;SDS011;6136;47.032;15.398;2022-12-07T00:29:04;12.90;;;7.90;;
12145;SDS011;6136;47.032;15.398;2022-12-07T00:31:35;15.10;;;8.40;;
12145;SDS011;6136;47.032;15.398;2022-12-07T00:34:05;14.70;;;8.33;;
12145;SDS011;6136;47.032;15.398;2022-12-07T00:36:35;18.80;;;9.50;;
12145;SDS011;6136;47.032;15.398;2022-12-07T00:39:03;16.13;;;8.70;;
12145;SDS011;6136;47.032;15.398;2022-12-07T00:41:32;17.40;;;9.73;;
12145;SDS011;6136;47.032;15.398;2022-12-07T00:44:00;13.30;;;7.93;;
12145;SDS011;6136;47.032;15.398;2022-12-07T00:46:28;14.73;;;9.10;;
12145;SDS011;6136;47.032;15.398;2022-12-07T00:48:57;15.53;;;8.77;;
12145;SDS011;6136;47.032;15.398;2022-12-07T00:51:25;15.67;;;9.07;;
12145;SDS011;6136;47.032;15.398;2022-12-07T00:53:55;16.70;;;8.70;;
12145;SDS011;6136;47.032;15.398;2022-12-07T00:56:24;13.90;;;9.27;;
12145;SDS011;6136;47.032;15.398;2022-12-07T00:58:54;12.43;;;7.37;;
12145;SDS011;6136;47.032;15.398;2022-12-07T01:01:26;12.37;;;7.10;;
12145;SDS011;6136;47.032;15.398;2022-12-07T01:03:56;11.50;;;7.50;;
12145;SDS011;6136;47.032;15.398;2022-12-07T01:06:24;15.43;;;8.43;;
12145;SDS011;6136;47.032;15.398;2022-12-07T01:08:53;13.83;;;7.77;;
12145;SDS011;6136;47.032;15.398;2022-12-07T01:11:23;12.80;;;7.47;;
12145;SDS011;6136;47.032;15.398;2022-12-07T01:13:55;13.33;;;8.33;;
12145;SDS011;6136;47.032;15.398;2022-12-07T01:16:25;13.97;;;8.17;;
12145;SDS011;6136;47.032;15.398;2022-12-07T01:18:55;14.47;;;8.50;;
12145;SDS011;6136;47.032;15.398;2022-12-07T01:21:25;21.87;;;9.10;;
12145;SDS011;6136;47.032;15.398;2022-12-07T01:23:56;16.97;;;9.03;;
12145;SDS011;6136;47.032;15.398;2022-12-07T01:26:27;18.57;;;9.57;;
12145;SDS011;6136;47.032;15.398;2022-12-07T01:28:55;18.53;;;9.67;;
12145;SDS011;6136;47.032;15.398;2022-12-07T01:31:25;16.43;;;9.43;;
12145;SDS011;6136;47.032;15.398;2022-12-07T01:33:55;17.10;;;9.70;;
12145;SDS011;6136;47.032;15.398;2022-12-07T01:36:25;16.77;;;10.07;;
12145;SDS011;6136;47.032;15.398;2022-12-07T01:38:54;17.53;;;9.67;;
12145;SDS011;6136;47.032;15.398;2022-12-07T01:41:25;17.23;;;10.10;;
12145;SDS011;6136;47.032;15.398;2022-12-07T01:46:49;18.13;;;10.23;;
12145;SDS011;6136;47.032;15.398;2022-12-07T01:49:24;19.77;;;9.47;;
12145;SDS011;6136;47.032;15.398;2022-12-07T01:52:00;17.30;;;10.27;;
12145;SDS011;6136;47.032;15.398;2022-12-07T01:54:35;18.37;;;10.43;;
12145;SDS011;6136;47.032;15.398;2022-12-07T01:57:05;16.07;;;9.53;;
12145;SDS011;6136;47.032;15.398;2022-12-07T01:59:35;14.93;;;9.43;;
12145;SDS011;6136;47.032;15.398;2022-12-07T02:02:05;21.40;;;7.73;;
12145;SDS011;6136;47.032;15.398;2022-12-07T02:04:39;13.80;;;8.00;;
12145;SDS011;6136;47.032;15.398;2022-12-07T02:07:08;15.70;;;8.10;;
12145;SDS011;6136;47.032;15.398;2022-12-07T02:09:36;15.80;;;8.27;;
12145;SDS011;6136;47.032;15.398;2022-12-07T02:12:05;13.03;;;7.33;;
12145;SDS011;6136;47.032;15.398;2022-12-07T02:14:34;10.67;;;7.57;;
12145;SDS011;6136;47.032;15.398;2022-12-07T02:17:05;12.10;;;7.03;;
12145;SDS011;6136;47.032;15.398;2022-12-07T02:22:43;11.00;;;6.97;;
12145;SDS011;6136;47.032;15.398;2022-12-07T02:25:32;12.23;;;7.60;;
12145;SDS011;6136;47.032;15.398;2022-12-07T02:28:12;18.23;;;8.90;;
12145;SDS011;6136;47.032;15.398;2022-12-07T02:30:50;21.97;;;8.87;;
12145;SDS011;6136;47.032;15.398;2022-12-07T02:33:24;11.33;;;7.10;;
12145;SDS011;6136;47.032;15.398;2022-12-07T02:35:57;10.70;;;6.73;;
12145;SDS011;6136;47.032;15.398;2022-12-07T02:38:31;13.80;;;7.90;;
12145;SDS011;6136;47.032;15.398;2022-12-07T02:41:06;11.50;;;6.87;;
12145;SDS011;6136;47.032;15.398;2022-12-07T02:43:40;13.37;;;8.33;;
12145;SDS011;6136;47.032;15.398;2022-12-07T02:46:15;12.77;;;7.20;;
12145;SDS011;6136;47.032;15.398;2022-12-07T02:48:48;12.27;;;7.27;;
12145;SDS011;6136;47.032;15.398;2022-12-07T02:51:17;10.53;;;7.10;;
12145;SDS011;6136;47.032;15.398;2022-12-07T02:53:46;14.47;;;7.33;;
12145;SDS011;6136;47.032;15.398;2022-12-07T02:56:16;12.50;;;7.40;;
12145;SDS011;6136;47.032;15.398;2022-12-07T02:58:56;15.87;;;7.57;;
12145;SDS011;6136;47.032;15.398;2022-12-07T03:01:37;17.70;;;8.93;;
12145;SDS011;6136;47.032;15.398;2022-12-07T03:04:20;12.97;;;7.43;;
12145;SDS011;6136;47.032;15.398;2022-12-07T03:07:02;12.27;;;7.57;;
12145;SDS011;6136;47.032;15.398;2022-12-07T03:09:35;12.13;;;7.17;;
12145;SDS011;6136;47.032;15.398;2022-12-07T03:12:12;12.77;;;7.27;;
12145;SDS011;6136;47.032;15.398;2022-12-07T03:14:47;11.97;;;7.57;;
12145;SDS011;6136;47.032;15.398;2022-12-07T03:17:24;14.87;;;7.00;;
12145;SDS011;6136;47.032;15.398;2022-12-07T03:19:57;14.43;;;7.63;;
12145;SDS011;6136;47.032;15.398;2022-12-07T03:22:28;10.47;;;6.67;;
12145;SDS011;6136;47.032;15.398;2022-12-07T03:25:01;12.13;;;7.30;;
12145;SDS011;6136;47.032;15.398;2022-12-07T03:27:34;10.30;;;6.50;;
12145;SDS011;6136;47.032;15.398;2022-12-07T03:30:07;9.83;;;6.33;;
12145;SDS011;6136;47.032;15.398;2022-12-07T03:32:40;12.27;;;7.30;;
12145;SDS011;6136;47.032;15.398;2022-12-07T03:35:14;9.23;;;6.17;;
12145;SDS011;6136;47.032;15.398;2022-12-07T03:37:48;11.70;;;6.77;;
12145;SDS011;6136;47.032;15.398;2022-12-07T03:40:22;11.37;;;7.03;;
12145;SDS011;6136;47.032;15.398;2022-12-07T03:42:53;14.23;;;7.57;;
12145;SDS011;6136;47.032;15.398;2022-12-07T03:45:28;13.53;;;7.57;;
12145;SDS011;6136;47.032;15.398;2022-12-07T03:48:07;13.47;;;8.03;;
12145;SDS011;6136;47.032;15.398;2022-12-07T03:50:43;12.67;;;6.73;;
12145;SDS011;6136;47.032;15.398;2022-12-07T03:53:19;10.37;;;5.93;;
12145;SDS011;6136;47.032;15.398;2022-12-07T03:55:52;9.77;;;6.77;;
12145;SDS011;6136;47.032;15.398;2022-12-07T03:58:22;10.03;;;6.67;;
12145;SDS011;6136;47.032;15.398;2022-12-07T04:00:51;10.97;;;6.30;;
12145;SDS011;6136;47.032;15.398;2022-12-07T04:03:21;10.13;;;5.40;;
12145;SDS011;6136;47.032;15.398;2022-12-07T04:05:49;5.87;;;5.03;;
12145;SDS011;6136;47.032;15.398;2022-12-07T04:08:17;10.10;;;5.93;;
12145;SDS011;6136;47.032;15.398;2022-12-07T04:10:45;9.33;;;5.97;;
12145;SDS011;6136;47.032;15.398;2022-12-07T04:13:14;8.07;;;5.57;;
12145;SDS011;6136;47.032;15.398;2022-12-07T04:15:42;9.77;;;6.27;;
12145;SDS011;6136;47.032;15.398;2022-12-07T04:18:10;9.87;;;6.17;;
12145;SDS011;6136;47.032;15.398;2022-12-07T04:20:39;10.93;;;6.53;;
12145;SDS011;6136;47.032;15.398;2022-12-07T04:23:08;12.17;;;7.53;;
12145;SDS011;6136;47.032;15.398;2022-12-07T04:25:36;9.73;;;6.83;;
12145;SDS011;6136;47.032;15.398;2022-12-07T04:28:04;12.57;;;7.60;;
12145;SDS011;6136;47.032;15.398;2022-12-07T04:30:32;8.47;;;6.53;;
12145;SDS011;6136;47.032;15.398;2022-12-07T04:33:00;12.23;;;7.00;;
12145;SDS011;6136;47.032;15.398;2022-12-07T04:35:28;16.37;;;8.80;;
12145;SDS011;6136;47.032;15.398;2022-12-07T04:37:58;11.97;;;7.93;;
12145;SDS011;6136;47.032;15.398;2022-12-07T04:40:26;14.73;;;7.70;;
12145;SDS011;6136;47.032;15.398;2022-12-07T04:42:54;13.63;;;7.83;;
12145;SDS011;6136;47.032;15.398;2022-12-07T04:45:23;12.27;;;7.40;;
12145;SDS011;6136;47.032;15.398;2022-12-07T04:47:51;10.70;;;6.37;;
12145;SDS011;6136;47.032;15.398;2022-12-07T04:50:19;10.70;;;6.60;;
12145;SDS011;6136;47.032;15.398;2022-12-07T04:52:47;13.87;;;7.00;;
12145;SDS011;6136;47.032;15.398;2022-12-07T04:55:17;10.37;;;6.80;;
12145;SDS011;6136;47.032;15.398;2022-12-07T04:57:45;12.53;;;6.47;;
12145;SDS011;6136;47.032;15.398;2022-12-07T05:00:13;10.87;;;6.33;;
12145;SDS011;6136;47.032;15.398;2022-12-07T05:02:41;10.87;;;7.07;;
12145;SDS011;6136;47.032;15.398;2022-12-07T05:05:10;10.67;;;6.57;;
12145;SDS011;6136;47.032;15.398;2022-12-07T05:07:38;11.03;;;7.40;;
12145;SDS011;6136;47.032;15.398;2022-12-07T05:10:07;10.67;;;6.87;;
12145;SDS011;6136;47.032;15.398;2022-12-07T05:12:37;15.00;;;7.70;;
12145;SDS011;6136;47.032;15.398;2022-12-07T05:15:05;12.10;;;7.73;;
12145;SDS011;6136;47.032;15.398;2022-12-07T05:17:34;9.83;;;6.37;;
12145;SDS011;6136;47.032;15.398;2022-12-07T05:20:02;10.97;;;6.93;;
12145;SDS011;6136;47.032;15.398;2022-12-07T05:22:31;14.10;;;7.43;;
12145;SDS011;6136;47.032;15.398;2022-12-07T05:24:59;14.10;;;7.50;;
12145;SDS011;6136;47.032;15.398;2022-12-07T05:27:27;11.00;;;6.43;;
12145;SDS011;6136;47.032;15.398;2022-12-07T05:29:57;9.37;;;6.53;;
12145;SDS011;6136;47.032;15.398;2022-12-07T05:32:25;15.80;;;8.00;;
12145;SDS011;6136;47.032;15.398;2022-12-07T05:34:54;13.33;;;7.10;;
12145;SDS011;6136;47.032;15.398;2022-12-07T05:37:22;13.77;;;8.20;;
12145;SDS011;6136;47.032;15.398;2022-12-07T05:39:50;13.03;;;7.43;;
12145;SDS011;6136;47.032;15.398;2022-12-07T05:42:18;12.00;;;7.13;;
12145;SDS011;6136;47.032;15.398;2022-12-07T05:44:47;11.40;;;6.63;;
12145;SDS011;6136;47.032;15.398;2022-12-07T05:47:16;15.77;;;6.80;;
12145;SDS011;6136;47.032;15.398;2022-12-07T05:49:44;9.97;;;6.60;;
12145;SDS011;6136;47.032;15.398;2022-12-07T05:52:13;13.73;;;7.70;;
12145;SDS011;6136;47.032;15.398;2022-12-07T05:54:41;8.77;;;6.57;;
12145;SDS011;6136;47.032;15.398;2022-12-07T05:57:09;12.37;;;7.40;;
12145;SDS011;6136;47.032;15.398;2022-12-07T05:59:37;10.37;;;7.57;;
12145;SDS011;6136;47.032;15.398;2022-12-07T06:02:06;16.90;;;8.23;;
12145;SDS011;6136;47.032;15.398;2022-12-07T06:04:38;13.33;;;7.80;;
12145;SDS011;6136;47.032;15.398;2022-12-07T06:07:07;11.20;;;7.67;;
12145;SDS011;6136;47.032;15.398;2022-12-07T06:09:37;11.80;;;7.47;;
12145;SDS011;6136;47.032;15.398;2022-12-07T06:12:06;13.70;;;7.83;;
12145;SDS011;6136;47.032;15.398;2022-12-07T06:14:51;10.90;;;7.10;;
12145;SDS011;6136;47.032;15.398;2022-12-07T06:17:19;15.17;;;7.80;;
12145;SDS011;6136;47.032;15.398;2022-12-07T06:19:49;9.93;;;6.77;;
12145;SDS011;6136;47.032;15.398;2022-12-07T06:22:17;11.30;;;7.23;;
12145;SDS011;6136;47.032;15.398;2022-12-07T06:24:46;13.03;;;7.83;;
12145;SDS011;6136;47.032;15.398;2022-12-07T06:27:14;20.00;;;8.20;;
12145;SDS011;6136;47.032;15.398;2022-12-07T06:29:42;11.77;;;6.90;;
12145;SDS011;6136;47.032;15.398;2022-12-07T06:32:10;11.53;;;7.07;;
12145;SDS011;6136;47.032;15.398;2022-12-07T06:34:39;15.00;;;7.77;;
12145;SDS011;6136;47.032;15.398;2022-12-07T06:37:08;12.50;;;7.33;;
12145;SDS011;6136;47.032;15.398;2022-12-07T06:39:36;14.33;;;8.17;;
12145;SDS011;6136;47.032;15.398;2022-12-07T06:42:05;13.20;;;7.30;;
12145;SDS011;6136;47.032;15.398;2022-12-07T06:44:33;13.60;;;7.80;;
12145;SDS011;6136;47.032;15.398;2022-12-07T06:47:01;12.27;;;7.40;;
12145;SDS011;6136;47.032;15.398;2022-12-07T06:49:51;11.37;;;7.40;;
12145;SDS011;6136;47.032;15.398;2022-12-07T06:52:20;10.57;;;7.13;;
12145;SDS011;6136;47.032;15.398;2022-12-07T06:54:48;11.67;;;7.00;;
12145;SDS011;6136;47.032;15.398;2022-12-07T06:57:17;12.23;;;7.27;;
12145;SDS011;6136;47.032;15.398;2022-12-07T06:59:46;12.70;;;6.47;;
12145;SDS011;6136;47.032;15.398;2022-12-07T07:02:14;11.67;;;6.53;;
12145;SDS011;6136;47.032;15.398;2022-12-07T07:04:43;12.47;;;7.73;;
12145;SDS011;6136;47.032;15.398;2022-12-07T07:07:11;11.00;;;6.80;;
12145;SDS011;6136;47.032;15.398;2022-12-07T07:09:41;12.73;;;7.80;;
12145;SDS011;6136;47.032;15.398;2022-12-07T07:12:09;20.13;;;8.43;;
12145;SDS011;6136;47.032;15.398;2022-12-07T07:14:37;12.60;;;7.97;;
12145;SDS011;6136;47.032;15.398;2022-12-07T07:17:05;15.67;;;8.80;;
12145;SDS011;6136;47.032;15.398;2022-12-07T07:19:34;18.97;;;9.47;;
12145;SDS011;6136;47.032;15.398;2022-12-07T07:22:03;18.03;;;9.03;;
12145;SDS011;6136;47.032;15.398;2022-12-07T07:24:31;12.57;;;8.37;;
12145;SDS011;6136;47.032;15.398;2022-12-07T07:27:01;11.17;;;7.43;;
12145;SDS011;6136;47.032;15.398;2022-12-07T07:29:29;14.57;;;7.83;;
12145;SDS011;6136;47.032;15.398;2022-12-07T07:31:57;12.90;;;7.83;;
12145;SDS011;6136;47.032;15.398;2022-12-07T07:34:31;11.00;;;7.57;;
12145;SDS011;6136;47.032;15.398;2022-12-07T07:37:00;15.23;;;8.90;;
12145;SDS011;6136;47.032;15.398;2022-12-07T07:39:28;14.83;;;8.03;;
12145;SDS011;6136;47.032;15.398;2022-12-07T07:41:56;15.13;;;8.80;;
12145;SDS011;6136;47.032;15.398;2022-12-07T07:44:27;12.67;;;8.00;;
12145;SDS011;6136;47.032;15.398;2022-12-07T07:47:00;15.77;;;8.50;;
12145;SDS011;6136;47.032;15.398;2022-12-07T07:49:28;16.00;;;9.27;;
12145;SDS011;6136;47.032;15.398;2022-12-07T07:51:57;16.00;;;9.73;;
12145;SDS011;6136;47.032;15.398;2022-12-07T07:54:25;15.17;;;8.50;;
12145;SDS011;6136;47.032;15.398;2022-12-07T07:56:53;14.00;;;8.60;;
12145;SDS011;6136;47.032;15.398;2022-12-07T07:59:21;19.77;;;10.23;;
12145;SDS011;6136;47.032;15.398;2022-12-07T08:01:51;18.83;;;10.13;;
12145;SDS011;6136;47.032;15.398;2022-12-07T08:04:19;17.33;;;9.80;;
12145;SDS011;6136;47.032;15.398;2022-12-07T08:06:48;14.67;;;8.67;;
12145;SDS011;6136;47.032;15.398;2022-12-07T08:09:16;20.10;;;10.77;;
12145;SDS011;6136;47.032;15.398;2022-12-07T08:11:44;21.60;;;10.40;;
12145;SDS011;6136;47.032;15.398;2022-12-07T08:14:13;18.73;;;10.17;;
12145;SDS011;6136;47.032;15.398;2022-12-07T08:16:41;16.37;;;9.87;;
12145;SDS011;6136;47.032;15.398;2022-12-07T08:19:11;17.33;;;10.60;;
12145;SDS011;6136;47.032;15.398;2022-12-07T08:21:39;20.27;;;10.77;;
12145;SDS011;6136;47.032;15.398;2022-12-07T08:24:07;21.83;;;9.33;;
12145;SDS011;6136;47.032;15.398;2022-12-07T08:26:35;19.27;;;9.53;;
12145;SDS011;6136;47.032;15.398;2022-12-07T08:29:04;18.63;;;9.87;;
12145;SDS011;6136;47.032;15.398;2022-12-07T08:31:32;20.53;;;10.60;;
12145;SDS011;6136;47.032;15.398;2022-12-07T08:34:00;19.73;;;10.60;;
12145;SDS011;6136;47.032;15.398;2022-12-07T08:36:30;16.93;;;10.77;;
12145;SDS011;6136;47.032;15.398;2022-12-07T08:38:58;21.10;;;11.57;;
12145;SDS011;6136;47.032;15.398;2022-12-07T08:41:49;19.27;;;10.40;;
12145;SDS011;6136;47.032;15.398;2022-12-07T08:44:18;20.00;;;11.00;;
12145;SDS011;6136;47.032;15.398;2022-12-07T08:46:47;19.63;;;11.10;;
12145;SDS011;6136;47.032;15.398;2022-12-07T08:49:21;23.73;;;11.20;;
12145;SDS011;6136;47.032;15.398;2022-12-07T08:51:54;19.53;;;11.13;;
12145;SDS011;6136;47.032;15.398;2022-12-07T08:54:23;18.63;;;9.53;;
12145;SDS011;6136;47.032;15.398;2022-12-07T08:56:51;21.27;;;11.63;;
12145;SDS011;6136;47.032;15.398;2022-12-07T08:59:25;19.23;;;10.60;;
12145;SDS011;6136;47.032;15.398;2022-12-07T09:01:54;20.50;;;11.13;;
12145;SDS011;6136;47.032;15.398;2022-12-07T09:04:23;24.17;;;11.93;;
12145;SDS011;6136;47.032;15.398;2022-12-07T09:06:51;19.17;;;10.33;;
12145;SDS011;6136;47.032;15.398;2022-12-07T09:09:22;19.47;;;10.63;;
12145;SDS011;6136;47.032;15.398;2022-12-07T09:11:52;20.07;;;10.93;;
12145;SDS011;6136;47.032;15.398;2022-12-07T09:14:20;23.90;;;11.70;;
12145;SDS011;6136;47.032;15.398;2022-12-07T09:16:49;20.10;;;11.90;;
12145;SDS011;6136;47.032;15.398;2022-12-07T09:19:17;18.97;;;10.90;;
12145;SDS011;6136;47.032;15.398;2022-12-07T09:21:45;21.73;;;12.40;;
12145;SDS011;6136;47.032;15.398;2022-12-07T09:24:15;21.63;;;12.53;;
12145;SDS011;6136;47.032;15.398;2022-12-07T09:26:43;22.87;;;12.13;;
12145;SDS011;6136;47.032;15.398;2022-12-07T09:29:12;18.20;;;10.77;;
12145;SDS011;6136;47.032;15.398;2022-12-07T09:31:40;19.17;;;10.43;;
12145;SDS011;6136;47.032;15.398;2022-12-07T09:34:08;21.27;;;11.53;;
12145;SDS011;6136;47.032;15.398;2022-12-07T09:36:37;21.33;;;11.17;;
12145;SDS011;6136;47.032;15.398;2022-12-07T09:39:07;26.53;;;11.63;;
12145;SDS011;6136;47.032;15.398;2022-12-07T09:41:38;20.77;;;10.83;;
12145;SDS011;6136;47.032;15.398;2022-12-07T09:44:10;17.43;;;10.73;;
12145;SDS011;6136;47.032;15.398;2022-12-07T09:46:42;23.73;;;13.03;;
12145;SDS011;6136;47.032;15.398;2022-12-07T09:49:11;25.13;;;13.30;;
12145;SDS011;6136;47.032;15.398;2022-12-07T09:51:44;22.37;;;12.80;;
12145;SDS011;6136;47.032;15.398;2022-12-07T09:54:14;22.57;;;12.50;;
12145;SDS011;6136;47.032;15.398;2022-12-07T09:56:45;21.40;;;12.37;;
12145;SDS011;6136;47.032;15.398;2022-12-07T09:59:15;20.00;;;12.03;;
12145;SDS011;6136;47.032;15.398;2022-12-07T10:01:46;18.97;;;11.80;;
12145;SDS011;6136;47.032;15.398;2022-12-07T10:04:18;18.63;;;11.50;;
12145;SDS011;6136;47.032;15.398;2022-12-07T10:06:49;18.27;;;11.53;;
12145;SDS011;6136;47.032;15.398;2022-12-07T10:09:19;17.63;;;9.83;;
12145;SDS011;6136;47.032;15.398;2022-12-07T10:11:59;17.60;;;10.07;;
12145;SDS011;6136;47.032;15.398;2022-12-07T10:14:29;18.23;;;10.37;;
12145;SDS011;6136;47.032;15.398;2022-12-07T10:17:30;16.57;;;10.27;;
12145;SDS011;6136;47.032;15.398;2022-12-07T10:20:13;16.83;;;10.83;;
12145;SDS011;6136;47.032;15.398;2022-12-07T10:22:54;20.87;;;11.80;;
12145;SDS011;6136;47.032;15.398;2022-12-07T10:25:25;21.97;;;12.53;;
12145;SDS011;6136;47.032;15.398;2022-12-07T10:28:10;22.50;;;13.23;;
12145;SDS011;6136;47.032;15.398;2022-12-07T10:30:48;21.73;;;13.30;;
12145;SDS011;6136;47.032;15.398;2022-12-07T10:36:20;21.50;;;12.67;;
12145;SDS011;6136;47.032;15.398;2022-12-07T10:38:52;22.23;;;13.73;;
12145;SDS011;6136;47.032;15.398;2022-12-07T10:41:26;23.27;;;13.10;;
12145;SDS011;6136;47.032;15.398;2022-12-07T10:43:56;27.93;;;12.20;;
12145;SDS011;6136;47.032;15.398;2022-12-07T10:46:32;22.27;;;12.43;;
12145;SDS011;6136;47.032;15.398;2022-12-07T10:52:26;20.33;;;12.70;;
12145;SDS011;6136;47.032;15.398;2022-12-07T10:55:10;25.63;;;13.07;;
12145;SDS011;6136;47.032;15.398;2022-12-07T10:57:47;24.17;;;11.80;;
12145;SDS011;6136;47.032;15.398;2022-12-07T11:00:25;20.80;;;12.13;;
12145;SDS011;6136;47.032;15.398;2022-12-07T11:03:08;21.63;;;11.63;;
12145;SDS011;6136;47.032;15.398;2022-12-07T11:06:00;19.10;;;10.97;;
12145;SDS011;6136;47.032;15.398;2022-12-07T11:08:40;23.13;;;11.70;;
12145;SDS011;6136;47.032;15.398;2022-12-07T11:11:19;24.80;;;12.63;;
12145;SDS011;6136;47.032;15.398;2022-12-07T11:13:56;23.03;;;12.20;;
12145;SDS011;6136;47.032;15.398;2022-12-07T11:16:45;20.53;;;11.87;;
12145;SDS011;6136;47.032;15.398;2022-12-07T11:19:34;21.20;;;12.50;;
12145;SDS011;6136;47.032;15.398;2022-12-07T11:22:19;18.27;;;11.20;;
12145;SDS011;6136;47.032;15.398;2022-12-07T11:24:56;20.23;;;11.07;;
12145;SDS011;6136;47.032;15.398;2022-12-07T11:27:43;18.93;;;11.33;;
12145;SDS011;6136;47.032;15.398;2022-12-07T11:30:17;17.57;;;10.70;;
12145;SDS011;6136;47.032;15.398;2022-12-07T11:32:55;14.93;;;10.30;;
12145;SDS011;6136;47.032;15.398;2022-12-07T11:35:38;18.03;;;11.07;;
12145;SDS011;6136;47.032;15.398;2022-12-07T11:38:20;16.63;;;10.37;;
12145;SDS011;6136;47.032;15.398;2022-12-07T11:40:55;18.30;;;11.57;;
12145;SDS011;6136;47.032;15.398;2022-12-07T11:43:50;22.10;;;11.33;;
12145;SDS011;6136;47.032;15.398;2022-12-07T11:46:25;21.57;;;11.10;;
12145;SDS011;6136;47.032;15.398;2022-12-07T11:49:01;16.00;;;10.70;;
12145;SDS011;6136;47.032;15.398;2022-12-07T11:51:37;20.97;;;11.43;;
12145;SDS011;6136;47.032;15.398;2022-12-07T11:54:11;17.83;;;10.33;;
12145;SDS011;6136;47.032;15.398;2022-12-07T11:56:44;19.93;;;10.90;;
12145;SDS011;6136;47.032;15.398;2022-12-07T11:59:17;18.07;;;10.57;;
12145;SDS011;6136;47.032;15.398;2022-12-07T12:01:53;17.50;;;9.53;;
12145;SDS011;6136;47.032;15.398;2022-12-07T12:04:27;18.97;;;10.90;;
12145;SDS011;6136;47.032;15.398;2022-12-07T12:07:00;18.57;;;10.80;;
12145;SDS011;6136;47.032;15.398;2022-12-07T12:09:49;21.43;;;11.13;;
12145;SDS011;6136;47.032;15.398;2022-12-07T12:12:25;19.43;;;10.73;;
12145;SDS011;6136;47.032;15.398;2022-12-07T12:15:56;20.40;;;11.50;;
12145;SDS011;6136;47.032;15.398;2022-12-07T12:18:39;20.30;;;11.63;;
12145;SDS011;6136;47.032;15.398;2022-12-07T12:21:22;20.27;;;11.40;;
12145;SDS011;6136;47.032;15.398;2022-12-07T12:23:55;19.13;;;10.27;;
12145;SDS011;6136;47.032;15.398;2022-12-07T12:26:27;21.50;;;11.90;;
12145;SDS011;6136;47.032;15.398;2022-12-07T12:28:58;18.63;;;12.33;;
12145;SDS011;6136;47.032;15.398;2022-12-07T12:31:31;19.20;;;10.97;;
12145;SDS011;6136;47.032;15.398;2022-12-07T12:36:59;19.00;;;10.37;;
12145;SDS011;6136;47.032;15.398;2022-12-07T12:39:29;17.20;;;10.43;;
12145;SDS011;6136;47.032;15.398;2022-12-07T12:41:58;18.63;;;11.03;;
12145;SDS011;6136;47.032;15.398;2022-12-07T12:47:40;22.60;;;11.27;;
12145;SDS011;6136;47.032;15.398;2022-12-07T12:50:19;25.60;;;11.43;;
12145;SDS011;6136;47.032;15.398;2022-12-07T12:52:51;18.37;;;10.43;;
12145;SDS011;6136;47.032;15.398;2022-12-07T12:58:37;15.27;;;10.13;;
12145;SDS011;6136;47.032;15.398;2022-12-07T13:04:23;17.27;;;9.77;;
12145;SDS011;6136;47.032;15.398;2022-12-07T13:06:54;16.47;;;10.37;;
12145;SDS011;6136;47.032;15.398;2022-12-07T13:09:24;16.70;;;9.77;;
12145;SDS011;6136;47.032;15.398;2022-12-07T13:11:56;19.10;;;11.30;;
12145;SDS011;6136;47.032;15.398;2022-12-07T13:14:40;20.90;;;11.00;;
12145;SDS011;6136;47.032;15.398;2022-12-07T13:17:10;17.17;;;11.10;;
12145;SDS011;6136;47.032;15.398;2022-12-07T13:22:50;13.60;;;9.63;;
12145;SDS011;6136;47.032;15.398;2022-12-07T13:25:31;17.00;;;10.63;;
12145;SDS011;6136;47.032;15.398;2022-12-07T13:28:09;15.90;;;10.27;;
12145;SDS011;6136;47.032;15.398;2022-12-07T13:30:44;17.47;;;10.20;;
12145;SDS011;6136;47.032;15.398;2022-12-07T13:33:15;20.07;;;10.07;;
12145;SDS011;6136;47.032;15.398;2022-12-07T13:35:46;19.50;;;11.97;;
12145;SDS011;6136;47.032;15.398;2022-12-07T13:38:21;16.97;;;10.83;;
12145;SDS011;6136;47.032;15.398;2022-12-07T13:41:01;16.17;;;9.73;;
12145;SDS011;6136;47.032;15.398;2022-12-07T13:43:31;12.63;;;9.33;;
12145;SDS011;6136;47.032;15.398;2022-12-07T13:46:10;18.57;;;10.40;;
12145;SDS011;6136;47.032;15.398;2022-12-07T13:48:44;18.67;;;10.97;;
12145;SDS011;6136;47.032;15.398;2022-12-07T13:51:17;18.47;;;10.43;;
12145;SDS011;6136;47.032;15.398;2022-12-07T13:53:53;17.77;;;11.00;;
12145;SDS011;6136;47.032;15.398;2022-12-07T13:56:26;15.43;;;10.30;;
12145;SDS011;6136;47.032;15.398;2022-12-07T13:59:10;16.60;;;10.10;;
12145;SDS011;6136;47.032;15.398;2022-12-07T14:01:42;16.63;;;9.77;;
12145;SDS011;6136;47.032;15.398;2022-12-07T14:04:17;22.77;;;11.07;;
12145;SDS011;6136;47.032;15.398;2022-12-07T14:07:01;18.27;;;11.20;;
12145;SDS011;6136;47.032;15.398;2022-12-07T14:09:53;17.27;;;10.90;;
12145;SDS011;6136;47.032;15.398;2022-12-07T14:12:24;18.77;;;11.43;;
12145;SDS011;6136;47.032;15.398;2022-12-07T14:14:53;17.60;;;10.87;;
12145;SDS011;6136;47.032;15.398;2022-12-07T14:17:23;15.93;;;10.63;;
12145;SDS011;6136;47.032;15.398;2022-12-07T14:19:52;16.10;;;11.17;;
12145;SDS011;6136;47.032;15.398;2022-12-07T14:22:26;19.60;;;11.60;;
12145;SDS011;6136;47.032;15.398;2022-12-07T14:25:00;18.17;;;10.63;;
12145;SDS011;6136;47.032;15.398;2022-12-07T14:27:46;17.90;;;11.50;;
12145;SDS011;6136;47.032;15.398;2022-12-07T14:30:17;14.47;;;10.67;;
12145;SDS011;6136;47.032;15.398;2022-12-07T14:32:48;17.50;;;11.10;;
12145;SDS011;6136;47.032;15.398;2022-12-07T14:35:21;16.33;;;10.87;;
12145;SDS011;6136;47.032;15.398;2022-12-07T14:37:49;17.97;;;10.53;;
12145;SDS011;6136;47.032;15.398;2022-12-07T14:40:18;16.13;;;11.37;;
12145;SDS011;6136;47.032;15.398;2022-12-07T14:42:50;19.67;;;11.97;;
12145;SDS011;6136;47.032;15.398;2022-12-07T14:45:26;15.57;;;11.17;;
12145;SDS011;6136;47.032;15.398;2022-12-07T14:47:55;18.50;;;11.33;;
12145;SDS011;6136;47.032;15.398;2022-12-07T14:50:44;17.20;;;11.70;;
12145;SDS011;6136;47.032;15.398;2022-12-07T14:53:39;17.63;;;11.57;;
12145;SDS011;6136;47.032;15.398;2022-12-07T14:56:09;17.80;;;11.63;;
12145;SDS011;6136;47.032;15.398;2022-12-07T14:58:39;16.97;;;12.23;;
12145;SDS011;6136;47.032;15.398;2022-12-07T15:01:08;16.00;;;10.63;;
12145;SDS011;6136;47.032;15.398;2022-12-07T15:03:36;20.47;;;13.13;;
12145;SDS011;6136;47.032;15.398;2022-12-07T15:06:05;21.40;;;12.13;;
12145;SDS011;6136;47.032;15.398;2022-12-07T15:08:34;20.27;;;12.40;;
12145;SDS011;6136;47.032;15.398;2022-12-07T15:11:03;22.07;;;14.90;;
12145;SDS011;6136;47.032;15.398;2022-12-07T15:13:31;27.17;;;15.03;;
12145;SDS011;6136;47.032;15.398;2022-12-07T15:16:27;24.00;;;14.20;;
12145;SDS011;6136;47.032;15.398;2022-12-07T15:19:07;26.80;;;14.33;;
12145;SDS011;6136;47.032;15.398;2022-12-07T15:21:55;24.37;;;15.03;;
12145;SDS011;6136;47.032;15.398;2022-12-07T15:24:24;23.80;;;14.70;;
12145;SDS011;6136;47.032;15.398;2022-12-07T15:26:55;21.83;;;13.70;;